Airport ICAO


21:55 UTC

8°C

Clear skies


An affordable passengers' Moving Map for your aircraft. Made for the iPad and the iPhone
More information here

LFPO Orly


Paris FRANCE   VFR CAVOK


METAR LFPO 132130Z 20003KT CAVOK 08/07 Q1029 NOSIG 0h25min

TAF LFPO 131700Z 1318/1424 20005KT CAVOK BECMG 1321/1323 3000 BR TEMPO 1323/1410 VRB02KT 0800 BCFG BKN002 PROB30 TEMPO 1403/1409 0200 FG VV/// BECMG 1411/1413 9999 NSW BECMG 1420/1422 3000 BR 4h55min





NOTAMS

OPEN